Time;durP1;ratioP1;P1;durP2;ratioP2;P2;SDS_P1;SDS_P2;PMS_P1;PMS_P2;Temp;Humidity;BMP_temperature;BMP_pressure;BME280_temperature;BME280_humidity;BME280_pressure;Samples;Min_cycle;Max_cycle;Signal;HPM_P1;HPM_P2
2022/07/30 00:02:04;;;;;;;2.97;1.50;;;;;;;21.35;54.29;101094.53;5016231;28;20523;-68
2022/07/30 00:04:32;;;;;;;3.07;1.30;;;;;;;21.30;53.77;101097.53;5016229;28;20872;-70
2022/07/30 00:06:59;;;;;;;2.70;1.40;;;;;;;21.28;54.03;101086.06;5016196;28;20444;-69
2022/07/30 00:09:26;;;;;;;3.23;1.40;;;;;;;21.26;53.97;101086.44;5016070;28;20450;-69
2022/07/30 00:11:52;;;;;;;2.50;1.00;;;;;;;21.24;53.49;101091.50;5016090;28;20527;-69
2022/07/30 00:14:19;;;;;;;3.17;1.33;;;;;;;21.23;54.54;101080.84;5015745;28;20556;-69
2022/07/30 00:16:45;;;;;;;4.37;1.13;;;;;;;21.19;54.18;101089.03;5016042;28;20535;-68
2022/07/30 00:19:12;;;;;;;2.30;1.03;;;;;;;21.15;54.53;101094.47;5015545;28;20450;-68
2022/07/30 00:21:40;;;;;;;3.10;1.30;;;;;;;21.14;55.15;101092.06;5016048;28;20448;-67
2022/07/30 00:24:07;;;;;;;2.30;0.93;;;;;;;21.10;55.03;101085.69;5015470;28;20547;-69
2022/07/30 00:26:34;;;;;;;3.23;1.37;;;;;;;21.08;54.61;101086.06;5015760;28;20440;-69
2022/07/30 00:29:01;;;;;;;2.80;1.20;;;;;;;21.05;55.14;101094.25;5015976;28;20443;-68
2022/07/30 00:31:27;;;;;;;3.60;1.40;;;;;;;21.04;55.15;101084.38;5015636;28;20444;-69
2022/07/30 00:33:54;;;;;;;4.10;1.40;;;;;;;21.03;55.06;101080.00;5015577;28;20559;-69
2022/07/30 00:36:20;;;;;;;3.17;1.33;;;;;;;21.01;55.50;101085.09;5015533;28;20490;-69
2022/07/30 00:38:48;;;;;;;2.50;1.10;;;;;;;20.99;56.14;101076.41;5015270;28;20953;-69
2022/07/30 00:41:15;;;;;;;3.27;1.40;;;;;;;20.94;55.77;101083.00;5015479;28;20436;-69
2022/07/30 00:43:42;;;;;;;3.40;1.23;;;;;;;20.91;56.09;101078.19;5015436;28;20470;-68
2022/07/30 00:46:08;;;;;;;2.50;1.20;;;;;;;20.92;56.67;101075.06;5015686;28;20447;-69
2022/07/30 00:48:35;;;;;;;2.63;1.27;;;;;;;20.91;56.19;101084.50;5015352;28;20506;-69
2022/07/30 00:51:01;;;;;;;2.87;1.30;;;;;;;20.90;57.08;101074.66;5015148;28;20444;-68
2022/07/30 00:53:28;;;;;;;2.73;1.33;;;;;;;20.89;56.62;101070.31;5014878;28;20479;-70
2022/07/30 00:55:56;;;;;;;2.67;1.13;;;;;;;20.87;56.15;101064.34;5014551;28;20526;-68
2022/07/30 00:58:23;;;;;;;2.87;1.80;;;;;;;20.87;56.11;101067.09;5015070;28;20447;-70
2022/07/30 01:00:52;;;;;;;2.60;1.00;;;;;;;20.85;55.80;101068.59;5015170;28;20450;-69
2022/07/30 01:03:19;;;;;;;4.60;2.00;;;;;;;20.78;56.38;101074.75;5014978;28;20555;-69
2022/07/30 01:05:46;;;;;;;4.37;1.93;;;;;;;20.79;57.22;101068.09;5014679;28;20901;-68
2022/07/30 01:08:13;;;;;;;3.60;1.27;;;;;;;20.75;56.79;101069.16;5014728;28;20443;-69
2022/07/30 01:10:39;;;;;;;2.57;1.17;;;;;;;20.73;56.60;101072.28;5015002;28;20469;-68
2022/07/30 01:13:08;;;;;;;3.70;1.67;;;;;;;20.71;57.05;101082.03;5014919;28;20552;-69
2022/07/30 01:15:35;;;;;;;3.20;1.30;;;;;;;20.72;57.33;101070.69;5014514;28;20479;-69
2022/07/30 01:18:05;;;;;;;3.33;1.20;;;;;;;20.69;57.74;101065.09;5014947;28;20538;-69
2022/07/30 01:20:37;;;;;;;3.80;1.63;;;;;;;20.66;57.09;101067.38;5015050;28;20432;-69
2022/07/30 01:23:11;;;;;;;2.97;1.50;;;;;;;20.59;56.76;101067.25;5014921;28;20839;-69
2022/07/30 01:25:51;;;;;;;4.07;1.60;;;;;;;20.58;56.27;101070.34;5014409;28;20432;-69
2022/07/30 01:28:22;;;;;;;2.90;1.17;;;;;;;20.56;57.45;101067.94;5014189;28;20432;-68
2022/07/30 01:30:50;;;;;;;2.97;1.37;;;;;;;20.58;57.34;101070.34;5014620;28;20429;-69
2022/07/30 01:33:19;;;;;;;3.43;1.43;;;;;;;20.57;57.96;101068.75;5014231;28;20464;-68
2022/07/30 01:35:48;;;;;;;2.67;1.03;;;;;;;20.55;57.74;101063.59;5014314;28;21088;-68
2022/07/30 01:38:20;;;;;;;5.10;1.50;;;;;;;20.52;58.09;101060.75;5014471;28;20444;-69
2022/07/30 01:40:50;;;;;;;3.20;1.50;;;;;;;20.51;58.19;101065.47;5014121;28;20440;-68
2022/07/30 01:43:18;;;;;;;2.80;1.17;;;;;;;20.54;57.40;101063.94;5013957;28;20985;-69
2022/07/30 01:45:47;;;;;;;4.13;1.33;;;;;;;20.50;57.92;101063.09;5014301;28;20522;-68
2022/07/30 01:48:16;;;;;;;4.00;1.67;;;;;;;20.49;57.72;101058.72;5014270;28;20436;-69
2022/07/30 01:50:46;;;;;;;3.90;1.53;;;;;;;20.41;58.77;101064.03;5013865;28;20535;-68
2022/07/30 01:53:15;;;;;;;3.00;1.60;;;;;;;20.40;57.84;101058.88;5013979;28;20498;-68
2022/07/30 01:55:43;;;;;;;11.40;2.07;;;;;;;20.41;58.41;101055.78;5013716;28;20857;-68
2022/07/30 01:58:12;;;;;;;4.73;1.60;;;;;;;20.45;58.03;101060.53;5014111;28;20448;-70
2022/07/30 02:00:42;;;;;;;4.70;1.50;;;;;;;20.44;57.71;101047.94;5013806;28;21025;-69
2022/07/30 02:03:10;;;;;;;3.80;1.70;;;;;;;20.41;57.95;101049.47;5014091;28;20555;-68
2022/07/30 02:05:40;;;;;;;3.20;1.67;;;;;;;20.37;58.05;101051.34;5013564;28;20487;-68
2022/07/30 02:08:14;;;;;;;3.53;1.53;;;;;;;20.34;58.05;101060.28;5013115;28;20444;-68
2022/07/30 02:10:45;;;;;;;3.60;1.47;;;;;;;20.35;58.75;101062.69;5013923;28;20446;-67
2022/07/30 02:13:17;;;;;;;3.17;1.43;;;;;;;20.30;58.92;101053.91;5013894;28;20491;-68
2022/07/30 02:15:49;;;;;;;3.87;1.70;;;;;;;20.29;57.71;101061.38;5013882;28;20550;-68
2022/07/30 02:18:20;;;;;;;4.77;2.30;;;;;;;20.24;57.11;101066.34;5013693;28;20984;-68
2022/07/30 02:20:51;;;;;;;3.13;1.40;;;;;;;20.23;57.23;101068.31;5013524;28;21006;-68
2022/07/30 02:23:19;;;;;;;2.73;1.20;;;;;;;20.22;58.56;101066.69;5013580;28;20574;-68
2022/07/30 02:25:49;;;;;;;2.50;0.97;;;;;;;20.24;59.09;101061.63;5013712;28;20822;-68
2022/07/30 02:28:19;;;;;;;2.90;1.47;;;;;;;20.26;59.03;101056.56;5013915;28;20437;-68
2022/07/30 02:30:50;;;;;;;3.30;1.60;;;;;;;20.25;59.12;101046.72;5013609;28;20535;-68
2022/07/30 02:33:18;;;;;;;4.50;1.73;;;;;;;20.23;59.61;101049.03;5013589;28;20478;-68
2022/07/30 02:35:45;;;;;;;2.53;1.07;;;;;;;20.19;59.70;101053.66;5013453;28;20538;-68
2022/07/30 02:38:13;;;;;;;3.10;1.40;;;;;;;20.19;59.72;101052.81;5013135;28;20475;-68
2022/07/30 02:40:42;;;;;;;3.00;1.40;;;;;;;20.21;59.68;101050.53;5013504;28;20442;-66
2022/07/30 02:43:09;;;;;;;3.73;1.20;;;;;;;20.23;59.92;101046.28;5013446;28;20471;-67
2022/07/30 02:45:37;;;;;;;3.27;1.40;;;;;;;20.16;59.37;101048.84;5013140;28;20442;-68
2022/07/30 02:48:07;;;;;;;3.67;2.00;;;;;;;20.14;60.23;101053.88;5013125;28;20444;-67
2022/07/30 02:50:34;;;;;;;3.20;1.80;;;;;;;20.14;59.48;101051.13;5013375;28;20448;-68
2022/07/30 02:53:04;;;;;;;2.90;1.27;;;;;;;20.14;60.63;101053.88;5012875;28;20993;-68
2022/07/30 02:55:34;;;;;;;6.70;2.93;;;;;;;20.11;61.08;101060.13;5013331;28;20930;-69
2022/07/30 02:58:02;;;;;;;3.03;1.40;;;;;;;20.07;60.78;101056.47;5013646;28;20433;-68
2022/07/30 03:00:31;;;;;;;17.90;1.83;;;;;;;20.02;60.99;101054.78;5013296;28;20874;-68
2022/07/30 03:02:59;;;;;;;44.57;4.27;;;;;;;19.99;60.95;101049.19;5012962;28;20472;-69
2022/07/30 03:05:26;;;;;;;92.73;7.00;;;;;;;20.00;61.30;101045.28;5013251;28;20523;-71
2022/07/30 03:07:54;;;;;;;39.70;3.63;;;;;;;20.00;61.75;101053.53;5013069;28;20456;-68
2022/07/30 03:10:21;;;;;;;16.90;2.60;;;;;;;19.94;60.51;101053.00;5012974;28;20454;-69
2022/07/30 03:12:50;;;;;;;6.90;1.60;;;;;;;19.94;61.52;101046.72;5013173;28;20545;-66
2022/07/30 03:15:17;;;;;;;13.40;2.67;;;;;;;19.93;61.76;101056.13;5013134;28;20819;-67
2022/07/30 03:17:46;;;;;;;37.03;3.30;;;;;;;19.94;61.93;101058.50;5014191;28;20542;-66
2022/07/30 03:20:18;;;;;;;12.67;2.13;;;;;;;19.96;61.51;101066.38;5016685;28;20472;-66
2022/07/30 03:22:47;;;;;;;3.30;1.77;;;;;;;19.96;61.80;101071.88;5016699;28;20542;-67
2022/07/30 03:25:16;;;;;;;13.43;2.20;;;;;;;19.96;61.43;101066.38;5016909;28;20526;-66
2022/07/30 03:27:43;;;;;;;3.37;1.30;;;;;;;19.91;61.79;101072.94;5016582;28;20436;-66
2022/07/30 03:30:10;;;;;;;29.40;2.90;;;;;;;19.92;61.65;101077.28;5016812;28;20444;-65
2022/07/30 03:32:37;;;;;;;5.27;1.80;;;;;;;19.91;61.79;101090.25;5016710;28;20438;-67
2022/07/30 03:35:06;;;;;;;24.33;2.00;;;;;;;19.94;62.77;101086.00;5016820;28;20444;-66
2022/07/30 03:37:36;;;;;;;3.00;1.33;;;;;;;19.91;62.48;101078.44;5016389;28;20515;-67
2022/07/30 03:40:04;;;;;;;100.80;7.10;;;;;;;19.90;61.95;101083.16;5016663;28;20443;-65
2022/07/30 03:42:33;;;;;;;16.57;1.73;;;;;;;19.89;63.02;101084.31;5016575;28;20534;-67
2022/07/30 03:45:01;;;;;;;5.03;1.80;;;;;;;19.90;63.38;101082.34;5016580;28;20450;-69
2022/07/30 03:47:28;;;;;;;22.20;2.30;;;;;;;19.89;62.81;101083.50;5016497;28;20444;-68
2022/07/30 03:49:54;;;;;;;23.93;2.23;;;;;;;19.90;62.97;101079.59;5016503;28;20450;-69
2022/07/30 03:52:21;;;;;;;3.80;1.43;;;;;;;19.91;62.56;101092.19;5016283;28;20542;-68
2022/07/30 03:54:51;;;;;;;3.27;1.50;;;;;;;19.90;63.50;101083.16;5017535;28;20961;-69
2022/07/30 03:57:17;;;;;;;101.83;7.40;;;;;;;19.86;64.78;101090.50;5016249;28;20526;-69
2022/07/30 03:59:45;;;;;;;22.67;2.37;;;;;;;19.85;64.44;101088.91;5015975;28;20535;-69
2022/07/30 04:02:12;;;;;;;30.77;2.70;;;;;;;19.83;64.79;101093.16;5016188;28;20456;-69
2022/07/30 04:04:41;;;;;;;11.40;1.57;;;;;;;19.80;63.87;101093.88;5015792;28;20980;-69
2022/07/30 04:07:08;;;;;;;22.03;2.00;;;;;;;19.76;64.09;101093.78;5016212;28;20555;-69
2022/07/30 04:09:34;;;;;;;6.80;1.17;;;;;;;19.79;64.35;101086.75;5016098;28;20444;-70
2022/07/30 04:12:03;;;;;;;21.57;2.30;;;;;;;19.78;65.04;101088.72;5015816;28;20451;-69
2022/07/30 04:14:39;;;;;;;50.73;3.20;;;;;;;19.77;64.35;101089.88;5015898;28;20552;-70
2022/07/30 04:17:11;;;;;;;5.20;1.17;;;;;;;19.77;64.59;101095.34;5015914;28;20563;-69
2022/07/30 04:19:41;;;;;;;4.33;1.87;;;;;;;19.80;64.79;101099.38;5016022;28;20424;-70
2022/07/30 04:22:11;;;;;;;3.97;1.43;;;;;;;19.81;63.97;101104.50;5015911;28;20454;-69
2022/07/30 04:24:40;;;;;;;18.63;3.20;;;;;;;19.83;64.70;101101.41;5015741;28;20554;-69
2022/07/30 04:27:08;;;;;;;9.70;2.60;;;;;;;19.81;65.06;101101.75;5015763;28;20532;-69
2022/07/30 04:29:35;;;;;;;2.60;1.30;;;;;;;19.79;66.04;101103.25;5014817;28;20444;-70
2022/07/30 04:32:02;;;;;;;18.40;2.23;;;;;;;19.79;65.46;101101.31;5015798;28;20491;-69
2022/07/30 04:34:28;;;;;;;15.17;2.50;;;;;;;19.79;64.69;101106.81;5015647;28;20559;-69
2022/07/30 04:36:55;;;;;;;3.43;1.53;;;;;;;19.80;65.87;101108.41;5015546;28;20490;-69
2022/07/30 04:39:21;;;;;;;7.40;1.47;;;;;;;19.80;66.31;101105.66;5015669;28;20451;-70
2022/07/30 04:41:48;;;;;;;28.33;3.00;;;;;;;19.83;66.38;101102.22;5015554;28;20540;-69
2022/07/30 04:44:17;;;;;;;13.63;3.40;;;;;;;19.85;66.07;101105.41;5015455;28;20558;-69
2022/07/30 04:46:43;;;;;;;2.93;1.17;;;;;;;19.80;65.08;101110.38;5015682;28;20440;-68
2022/07/30 04:49:11;;;;;;;15.50;1.63;;;;;;;19.81;64.68;101114.72;5015112;28;21019;-68
2022/07/30 04:51:39;;;;;;;14.53;2.70;;;;;;;19.83;64.70;101106.91;5014964;28;20440;-68
2022/07/30 04:54:08;;;;;;;14.00;1.80;;;;;;;19.81;64.98;101114.72;5015136;28;20479;-68
2022/07/30 04:56:37;;;;;;;25.17;2.57;;;;;;;19.79;64.04;101112.31;5015151;28;20489;-68
2022/07/30 04:59:05;;;;;;;7.00;2.00;;;;;;;19.81;65.13;101110.00;5015249;28;20527;-74
2022/07/30 05:01:36;;;;;;;30.17;2.40;;;;;;;19.82;65.98;101106.09;5015987;28;20516;-77
2022/07/30 05:04:04;;;;;;;10.10;2.13;;;;;;;19.79;65.70;101117.81;5015596;28;20464;-69
2022/07/30 05:06:32;;;;;;;4.13;1.60;;;;;;;19.81;66.49;101115.50;5015070;28;20466;-71
2022/07/30 05:08:58;;;;;;;2.73;1.30;;;;;;;19.84;66.20;101112.06;5014910;28;20443;-70
2022/07/30 05:11:25;;;;;;;15.23;2.67;;;;;;;19.87;68.88;101108.59;5014968;28;20543;-70
2022/07/30 05:13:53;;;;;;;7.80;2.07;;;;;;;19.88;70.10;101109.41;5014938;28;20555;-69
2022/07/30 05:16:19;;;;;;;12.33;1.70;;;;;;;19.88;70.96;101109.41;5014933;28;20496;-70
2022/07/30 05:18:47;;;;;;;3.07;1.30;;;;;;;19.86;70.74;101118.00;5014876;28;20522;-69
2022/07/30 05:21:14;;;;;;;4.20;1.83;;;;;;;19.83;69.06;101115.16;5015096;28;20538;-69
2022/07/30 05:23:41;;;;;;;3.30;1.57;;;;;;;19.78;67.13;101118.94;5014702;28;20496;-69
2022/07/30 05:26:07;;;;;;;2.87;1.40;;;;;;;19.72;66.30;101103.06;5014789;28;20522;-69
2022/07/30 05:28:34;;;;;;;2.90;2.13;;;;;;;19.69;70.28;101112.00;5014441;28;20487;-72
2022/07/30 05:31:01;;;;;;;3.87;1.70;;;;;;;19.71;70.00;101105.03;5014616;28;20531;-68
2022/07/30 05:33:27;;;;;;;2.90;1.40;;;;;;;19.70;70.09;101097.94;5014489;28;20518;-69
2022/07/30 05:35:58;;;;;;;3.47;1.33;;;;;;;19.77;69.01;101111.06;5014486;28;20531;-69
2022/07/30 05:38:25;;;;;;;3.17;1.40;;;;;;;19.81;67.62;101103.72;5014497;28;20460;-70
2022/07/30 05:40:52;;;;;;;4.70;1.70;;;;;;;19.80;67.06;101108.41;5014352;28;20487;-69
2022/07/30 05:43:18;;;;;;;46.30;3.20;;;;;;;19.85;67.69;101107.38;5014303;28;20466;-70
2022/07/30 05:45:45;;;;;;;3.10;1.50;;;;;;;19.90;70.22;101110.66;5014368;28;20523;-71
2022/07/30 05:48:12;;;;;;;4.00;1.60;;;;;;;19.92;70.63;101107.53;5014368;28;20466;-70
2022/07/30 05:50:38;;;;;;;24.90;3.47;;;;;;;19.93;69.46;101109.16;5014187;28;20535;-70
2022/07/30 05:53:06;;;;;;;18.30;2.40;;;;;;;19.89;67.33;101111.81;5013988;28;20567;-70
2022/07/30 05:55:33;;;;;;;11.07;1.83;;;;;;;19.86;66.76;101109.75;5014190;28;20483;-72
2022/07/30 05:57:59;;;;;;;6.70;1.80;;;;;;;19.87;67.44;101108.59;5013755;28;20490;-70
2022/07/30 06:00:26;;;;;;;27.83;2.30;;;;;;;19.85;67.54;101096.38;5014037;28;20451;-69
2022/07/30 06:02:53;;;;;;;2.90;1.40;;;;;;;19.81;67.03;101104.50;5013991;28;20558;-70
2022/07/30 06:05:19;;;;;;;17.77;1.77;;;;;;;19.75;65.44;101111.41;5013752;28;20523;-69
2022/07/30 06:07:46;;;;;;;10.47;1.17;;;;;;;19.73;64.56;101110.16;5013946;28;20444;-69
2022/07/30 06:10:14;;;;;;;16.83;1.80;;;;;;;19.72;66.02;101112.09;5013938;28;20444;-69
2022/07/30 06:12:41;;;;;;;3.17;1.60;;;;;;;19.75;68.00;101111.41;5013524;28;20942;-69
2022/07/30 06:15:09;;;;;;;3.70;1.67;;;;;;;19.76;66.98;101118.50;5013836;28;20452;-72
2022/07/30 06:17:41;;;;;;;7.43;1.60;;;;;;;19.83;66.47;101115.16;5013756;28;20520;-73
2022/07/30 06:20:08;;;;;;;2.77;1.27;;;;;;;19.90;68.31;101118.09;5013563;28;20428;-72
2022/07/30 06:22:35;;;;;;;3.83;1.50;;;;;;;19.94;69.28;101118.22;5013716;28;20885;-72
2022/07/30 06:25:01;;;;;;;2.73;1.43;;;;;;;19.96;68.78;101121.38;5013759;28;20448;-69
2022/07/30 06:27:29;;;;;;;5.03;1.53;;;;;;;20.00;68.09;101125.03;5013703;28;20886;-69
2022/07/30 06:29:56;;;;;;;3.80;1.73;;;;;;;20.04;67.68;101131.44;5013656;28;20444;-70
2022/07/30 06:32:22;;;;;;;3.23;1.50;;;;;;;20.09;67.40;101131.19;5013512;28;20444;-67
2022/07/30 06:34:49;;;;;;;3.20;1.60;;;;;;;20.12;67.46;101138.72;5013649;28;20448;-68
2022/07/30 06:37:16;;;;;;;7.33;1.50;;;;;;;20.15;67.49;101136.09;5013175;28;21076;-68
2022/07/30 06:39:42;;;;;;;11.63;2.37;;;;;;;20.16;67.18;101139.63;5013537;28;20531;-69
2022/07/30 06:42:09;;;;;;;8.43;2.10;;;;;;;20.20;66.87;101137.78;5013419;28;20539;-69
2022/07/30 06:44:37;;;;;;;4.53;2.10;;;;;;;20.17;66.54;101141.22;5013338;28;20554;-68
2022/07/30 06:47:04;;;;;;;2.90;1.40;;;;;;;20.12;65.68;101139.53;5013558;28;20475;-69
2022/07/30 06:49:32;;;;;;;3.00;1.40;;;;;;;20.15;65.89;101143.53;5013476;28;20435;-69
2022/07/30 06:51:59;;;;;;;3.47;1.40;;;;;;;20.15;67.21;101138.84;5013181;28;20444;-70
2022/07/30 06:54:25;;;;;;;3.50;1.70;;;;;;;20.17;68.38;101141.22;5016828;28;20579;-69
2022/07/30 06:56:52;;;;;;;2.97;1.53;;;;;;;20.15;67.88;101147.09;5017121;28;21012;-68
2022/07/30 06:59:18;;;;;;;3.10;1.53;;;;;;;20.14;67.94;101147.41;5017160;28;20443;-68
2022/07/30 07:01:46;;;;;;;2.50;1.13;;;;;;;20.19;68.98;101143.59;5017425;28;20444;-68
2022/07/30 07:04:13;;;;;;;2.87;1.40;;;;;;;20.24;67.64;101143.38;5017275;28;20462;-68
2022/07/30 07:06:40;;;;;;;5.50;1.60;;;;;;;20.24;66.71;101141.41;5017292;28;20470;-68
2022/07/30 07:09:06;;;;;;;8.23;1.87;;;;;;;20.19;66.25;101146.34;5017226;28;20440;-68
2022/07/30 07:11:33;;;;;;;3.73;2.10;;;;;;;20.23;66.76;101147.25;5017261;28;20436;-68
2022/07/30 07:14:00;;;;;;;7.67;1.30;;;;;;;20.18;66.33;101151.06;5017133;28;20558;-68
2022/07/30 07:16:26;;;;;;;9.73;1.80;;;;;;;20.27;67.93;101153.66;5017045;28;20451;-69
2022/07/30 07:18:54;;;;;;;5.10;1.60;;;;;;;20.22;67.19;101154.72;5016750;28;20539;-70
2022/07/30 07:21:22;;;;;;;3.70;1.10;;;;;;;20.23;66.54;101142.59;5017924;28;20813;-71
2022/07/30 07:23:49;;;;;;;4.97;1.67;;;;;;;20.24;66.52;101144.16;5016611;28;21103;-68
2022/07/30 07:26:16;;;;;;;6.77;1.43;;;;;;;20.29;66.19;101149.41;5016908;28;20482;-70
2022/07/30 07:28:42;;;;;;;13.70;1.70;;;;;;;20.35;67.00;101142.47;5016800;28;20458;-70
2022/07/30 07:31:10;;;;;;;15.23;1.80;;;;;;;20.41;67.02;101149.34;5017140;28;20520;-69
2022/07/30 07:33:38;;;;;;;2.80;1.43;;;;;;;20.51;65.62;101145.28;5016445;28;20469;-70
2022/07/30 07:36:06;;;;;;;4.53;1.50;;;;;;;20.58;67.27;101155.66;5016514;28;20452;-69
2022/07/30 07:38:33;;;;;;;3.33;1.37;;;;;;;20.56;66.03;101147.78;5016570;28;20499;-70
2022/07/30 07:40:59;;;;;;;4.60;1.30;;;;;;;20.63;65.45;101152.66;5016868;28;20543;-69
2022/07/30 07:43:26;;;;;;;3.10;1.50;;;;;;;20.74;65.50;101158.44;5016402;28;20558;-69
2022/07/30 07:45:53;;;;;;;3.27;1.50;;;;;;;20.85;65.00;101159.47;5016394;28;20551;-68
2022/07/30 07:48:19;;;;;;;3.37;1.43;;;;;;;20.96;65.20;101157.78;5016306;28;20962;-68
2022/07/30 07:50:46;;;;;;;2.20;0.90;;;;;;;21.07;66.17;101158.03;5016420;28;20530;-68
2022/07/30 07:53:14;;;;;;;4.40;1.57;;;;;;;21.16;65.95;101161.38;5016106;28;20475;-69
2022/07/30 07:55:41;;;;;;;3.37;1.23;;;;;;;21.25;64.18;101158.44;5016376;28;20526;-69
2022/07/30 07:58:10;;;;;;;2.20;0.90;;;;;;;21.37;62.86;101164.66;5016353;28;20511;-69
2022/07/30 08:00:37;;;;;;;2.23;1.20;;;;;;;21.44;63.40;101160.47;5016285;28;20452;-69
2022/07/30 08:03:03;;;;;;;2.60;1.20;;;;;;;21.49;62.02;101155.47;5016225;28;20475;-69
2022/07/30 08:05:30;;;;;;;2.60;1.20;;;;;;;21.60;61.48;101158.44;5016165;28;20444;-69
2022/07/30 08:07:56;;;;;;;4.83;1.37;;;;;;;21.67;60.80;101167.66;5016187;28;20440;-68
2022/07/30 08:10:25;;;;;;;3.07;1.40;;;;;;;21.79;61.60;101163.97;5016100;28;20523;-69
2022/07/30 08:12:52;;;;;;;3.47;1.03;;;;;;;21.89;63.04;101162.59;5015880;28;20526;-69
2022/07/30 08:15:18;;;;;;;5.73;1.80;;;;;;;21.97;60.42;101158.00;5015676;28;20502;-68
2022/07/30 08:17:46;;;;;;;2.40;1.00;;;;;;;22.04;60.99;101167.22;5015711;28;21044;-68
2022/07/30 08:20:15;;;;;;;2.73;1.30;;;;;;;22.18;61.25;101155.69;5015864;28;20471;-69
2022/07/30 08:22:41;;;;;;;2.40;0.80;;;;;;;22.26;60.87;101160.16;5015364;28;20436;-68
2022/07/30 08:25:09;;;;;;;5.03;1.37;;;;;;;22.38;60.80;101156.44;5015914;28;20436;-68
2022/07/30 08:27:37;;;;;;;2.93;1.03;;;;;;;22.47;60.74;101157.00;5015459;28;20523;-69
2022/07/30 08:30:05;;;;;;;2.57;1.17;;;;;;;22.55;61.79;101153.19;5015708;28;20444;-70
2022/07/30 08:32:32;;;;;;;2.50;1.17;;;;;;;22.60;60.63;101158.41;5015762;28;20474;-68
2022/07/30 08:34:58;;;;;;;3.27;1.30;;;;;;;22.61;61.49;101150.91;5015705;28;20448;-69
2022/07/30 08:37:25;;;;;;;2.10;1.00;;;;;;;22.61;62.02;101150.91;5015594;28;20585;-70
2022/07/30 08:39:51;;;;;;;3.20;1.30;;;;;;;22.59;60.49;101150.50;5015705;28;20540;-69
2022/07/30 08:42:19;;;;;;;3.13;1.37;;;;;;;22.53;60.42;101149.19;5015460;28;20519;-69
2022/07/30 08:44:47;;;;;;;3.43;1.00;;;;;;;22.53;60.80;101154.72;5015647;28;20547;-71
2022/07/30 08:47:17;;;;;;;3.27;1.30;;;;;;;22.49;59.42;101160.19;5015672;28;20531;-70
2022/07/30 08:49:44;;;;;;;2.50;0.90;;;;;;;22.58;59.51;101169.03;5015462;28;20443;-73
2022/07/30 08:52:11;;;;;;;3.10;1.40;;;;;;;22.63;58.43;101159.63;5015420;28;20447;-68
2022/07/30 08:54:39;;;;;;;3.10;1.10;;;;;;;22.69;58.29;101163.66;5014923;28;20480;-69
2022/07/30 08:57:06;;;;;;;4.93;1.30;;;;;;;22.81;59.21;101160.72;5015025;28;21041;-69
2022/07/30 08:59:33;;;;;;;3.90;1.20;;;;;;;22.89;58.67;101156.94;5015201;28;20547;-69
2022/07/30 09:02:01;;;;;;;2.97;1.30;;;;;;;22.91;59.56;101159.31;5014839;28;21030;-69
2022/07/30 09:04:27;;;;;;;2.77;1.10;;;;;;;22.90;58.41;101155.75;5015052;28;20499;-69
2022/07/30 09:06:56;;;;;;;2.87;1.10;;;;;;;23.00;59.98;101156.28;5014852;28;20901;-68
2022/07/30 09:09:23;;;;;;;3.50;1.20;;;;;;;23.02;60.53;101156.72;5015150;28;20467;-70
2022/07/30 09:11:49;;;;;;;2.70;1.30;;;;;;;23.03;58.54;101161.09;5014713;28;20834;-69
2022/07/30 09:14:16;;;;;;;3.13;1.50;;;;;;;23.01;59.71;101147.63;5014859;28;20559;-68
2022/07/30 09:16:44;;;;;;;2.53;1.20;;;;;;;23.06;60.47;101157.56;5014116;28;20444;-69
2022/07/30 09:19:16;;;;;;;3.73;1.57;;;;;;;23.09;60.54;101148.53;5014429;28;20948;-69
2022/07/30 09:21:54;;;;;;;3.57;1.30;;;;;;;23.12;60.67;101158.84;5014560;28;20425;-69
2022/07/30 09:24:21;;;;;;;2.90;1.30;;;;;;;23.07;60.45;101156.41;5014750;28;20467;-70
2022/07/30 09:26:57;;;;;;;2.37;1.07;;;;;;;23.03;58.83;101150.81;5014738;28;20531;-69
2022/07/30 09:29:25;;;;;;;2.77;1.07;;;;;;;23.03;59.84;101159.13;5014278;28;20476;-69
2022/07/30 09:31:56;;;;;;;3.27;1.60;;;;;;;23.01;59.21;101155.91;5014480;28;20451;-68
2022/07/30 09:34:29;;;;;;;4.13;1.50;;;;;;;22.94;58.37;101155.03;5014441;28;20543;-70
2022/07/30 09:36:57;;;;;;;3.13;1.20;;;;;;;23.01;59.83;101157.88;5014643;28;20503;-69
2022/07/30 09:39:31;;;;;;;2.70;1.30;;;;;;;23.10;59.81;101158.41;5014401;28;20490;-70
2022/07/30 09:41:58;;;;;;;2.80;1.13;;;;;;;23.07;58.59;101161.94;5014437;28;20534;-68
2022/07/30 09:44:26;;;;;;;4.73;1.63;;;;;;;23.09;58.67;101157.63;5014359;28;20547;-70
2022/07/30 09:46:53;;;;;;;3.20;1.17;;;;;;;23.09;59.12;101154.06;5014361;28;20448;-69
2022/07/30 09:49:21;;;;;;;2.43;0.87;;;;;;;23.16;58.74;101160.50;5014268;28;20446;-69
2022/07/30 09:51:49;;;;;;;3.50;1.23;;;;;;;23.28;57.86;101153.94;5013951;28;20448;-69
2022/07/30 09:54:16;;;;;;;2.40;0.80;;;;;;;23.42;58.36;101164.41;5013885;28;20576;-69
2022/07/30 09:56:44;;;;;;;2.80;1.30;;;;;;;23.47;57.17;101157.75;5014188;28;20484;-69
2022/07/30 09:59:26;;;;;;;3.60;1.70;;;;;;;23.51;56.73;101161.38;5013744;28;21084;-69
2022/07/30 10:01:54;;;;;;;3.00;1.40;;;;;;;23.65;57.17;101156.03;5013829;28;20436;-69
2022/07/30 10:04:24;;;;;;;4.67;1.53;;;;;;;23.74;58.33;101151.03;5013975;28;20551;-70
2022/07/30 10:06:53;;;;;;;2.60;1.07;;;;;;;23.81;59.21;101147.53;5014091;28;20456;-70
2022/07/30 10:09:27;;;;;;;2.53;1.17;;;;;;;23.86;58.41;101153.53;5013675;28;20531;-68
2022/07/30 10:11:56;;;;;;;3.07;1.50;;;;;;;23.96;56.80;101157.59;5014095;28;20537;-70
2022/07/30 10:14:24;;;;;;;3.70;1.30;;;;;;;24.00;56.84;101154.88;5014017;28;20470;-70
2022/07/30 10:16:52;;;;;;;2.60;1.20;;;;;;;24.09;57.88;101141.53;5013865;28;20547;-69
2022/07/30 10:19:20;;;;;;;3.50;1.20;;;;;;;24.16;56.81;101149.88;5013450;28;20997;-68
2022/07/30 10:21:47;;;;;;;2.37;0.83;;;;;;;24.31;57.77;101148.88;5013529;28;20483;-69
2022/07/30 10:24:16;;;;;;;6.63;1.40;;;;;;;24.46;56.94;101149.81;5013801;28;20543;-68
2022/07/30 10:26:43;;;;;;;2.40;1.00;;;;;;;24.57;56.00;101155.44;5013393;28;20483;-68
2022/07/30 10:29:10;;;;;;;2.67;1.07;;;;;;;24.66;53.97;101150.41;5013321;28;20467;-69
2022/07/30 10:31:37;;;;;;;2.60;1.27;;;;;;;24.71;55.28;101147.25;5013701;28;20452;-70
2022/07/30 10:34:04;;;;;;;2.90;1.37;;;;;;;24.87;55.67;101150.53;5013714;28;21083;-69
2022/07/30 10:36:32;;;;;;;3.87;1.03;;;;;;;24.98;53.78;101149.84;5013754;28;20483;-70
2022/07/30 10:38:59;;;;;;;7.20;1.43;;;;;;;25.17;55.26;101144.81;5013736;28;20488;-69
2022/07/30 10:41:38;;;;;;;2.67;1.13;;;;;;;25.34;55.68;101148.09;5013782;28;20530;-70
2022/07/30 10:44:20;;;;;;;3.30;1.33;;;;;;;25.51;54.42;101143.81;5013994;28;20542;-69
2022/07/30 10:46:59;;;;;;;2.60;1.17;;;;;;;25.56;52.02;101146.22;5013737;28;20432;-69
2022/07/30 10:49:26;;;;;;;2.77;1.40;;;;;;;25.61;50.76;101154.16;5013578;28;20435;-70
2022/07/30 10:51:54;;;;;;;3.33;1.10;;;;;;;25.73;50.54;101148.28;5013384;28;21016;-69
2022/07/30 10:54:43;;;;;;;2.47;0.97;;;;;;;25.89;50.60;101143.19;5012936;28;20529;-70
2022/07/30 10:57:14;;;;;;;2.87;1.30;;;;;;;26.07;48.20;101150.75;5013468;28;20433;-69
2022/07/30 11:00:09;;;;;;;3.30;1.00;;;;;;;26.17;48.62;101152.78;5013331;28;20479;-69
2022/07/30 11:02:36;;;;;;;2.73;1.10;;;;;;;26.21;49.38;101139.69;5013318;28;20487;-69
2022/07/30 11:05:23;;;;;;;3.43;1.40;;;;;;;26.32;49.68;101153.59;5013343;28;20535;-69
2022/07/30 11:07:49;;;;;;;3.93;1.30;;;;;;;26.46;48.18;101147.28;5013283;28;20475;-69
2022/07/30 11:10:35;;;;;;;4.33;1.20;;;;;;;26.65;48.11;101147.69;5013226;28;20444;-69
2022/07/30 11:13:04;;;;;;;2.70;1.00;;;;;;;26.83;48.26;101144.13;5013171;28;20471;-69
2022/07/30 11:15:56;;;;;;;2.97;0.97;;;;;;;27.06;46.45;101140.88;5013279;28;20436;-69
2022/07/30 11:18:23;;;;;;;3.70;0.90;;;;;;;27.14;46.35;101146.06;4998545;28;20571;-70
2022/07/30 11:21:16;;;;;;;2.50;1.10;;;;;;;27.23;45.97;101140.09;5013201;28;20436;-69
2022/07/30 11:23:44;;;;;;;4.63;1.23;;;;;;;27.40;44.20;101142.03;5013239;28;20504;-69
2022/07/30 11:26:31;;;;;;;4.17;1.10;;;;;;;27.63;45.02;101137.94;5013045;28;20454;-68
2022/07/30 11:28:59;;;;;;;3.47;1.40;;;;;;;28.11;47.45;101148.44;5012790;28;20527;-69
2022/07/30 11:31:28;;;;;;;2.17;0.97;;;;;;;28.62;43.34;101150.47;5013068;28;20459;-69